Time;durP1;ratioP1;P1;durP2;ratioP2;P2;SDS_P1;SDS_P2;PMS_P1;PMS_P2;Temp;Humidity;BMP_temperature;BMP_pressure;BME280_temperature;BME280_humidity;BME280_pressure;Samples;Min_cycle;Max_cycle;Signal;HPM_P1;HPM_P2
2022/02/23 00:00:12;;;;;;;0.70;0.50;;;8.30;99.90;;;;;;5047914;28;20245;-71
2022/02/23 00:02:37;;;;;;;0.70;0.50;;;8.30;99.90;;;;;;5032256;28;20294;-71
2022/02/23 00:05:04;;;;;;;0.70;0.50;;;8.20;99.90;;;;;;5032166;28;20457;-71
2022/02/23 00:07:30;;;;;;;0.70;0.40;;;8.20;99.90;;;;;;5032215;28;20217;-71
2022/02/23 00:09:55;;;;;;;0.70;0.50;;;8.10;99.90;;;;;;5032300;28;20406;-71
2022/02/23 00:12:21;;;;;;;0.70;0.50;;;8.10;99.90;;;;;;5031945;28;20198;-71
2022/02/23 00:14:46;;;;;;;0.80;0.70;;;8.00;99.90;;;;;;5032873;28;20201;-73
2022/02/23 00:17:12;;;;;;;0.70;0.43;;;7.90;99.90;;;;;;5032621;28;20207;-73
2022/02/23 00:19:37;;;;;;;0.90;0.80;;;7.90;99.90;;;;;;5034261;28;20190;-71
2022/02/23 00:22:03;;;;;;;0.70;0.40;;;7.80;99.90;;;;;;5033414;28;20692;-73
2022/02/23 00:24:29;;;;;;;0.70;0.40;;;7.70;99.90;;;;;;5031216;28;20172;-71
2022/02/23 00:26:54;;;;;;;0.70;0.50;;;7.70;99.90;;;;;;5033545;28;20188;-72
2022/02/23 00:29:20;;;;;;;0.70;0.50;;;7.60;99.90;;;;;;5052619;28;20254;-72
2022/02/23 00:31:46;;;;;;;0.70;0.43;;;7.50;99.90;;;;;;5052437;28;20193;-73
2022/02/23 00:34:11;;;;;;;0.90;0.90;;;7.50;99.90;;;;;;5032785;28;20168;-71
2022/02/23 00:36:37;;;;;;;0.80;0.70;;;7.40;99.90;;;;;;5031983;28;20919;-71
2022/02/23 00:39:03;;;;;;;0.70;0.50;;;7.30;99.90;;;;;;5034070;28;20255;-73
2022/02/23 00:41:29;;;;;;;0.70;0.40;;;7.30;99.90;;;;;;5050219;28;20982;-73
2022/02/23 00:43:54;;;;;;;0.73;0.67;;;7.30;99.90;;;;;;5051344;28;20551;-72
2022/02/23 00:46:20;;;;;;;0.70;0.50;;;7.20;99.90;;;;;;5051766;28;20167;-72
2022/02/23 00:48:45;;;;;;;0.80;0.60;;;7.10;99.90;;;;;;5051759;28;20639;-72
2022/02/23 00:51:11;;;;;;;0.70;0.50;;;7.10;99.90;;;;;;5051762;28;20182;-71
2022/02/23 00:53:37;;;;;;;0.70;0.50;;;7.00;99.90;;;;;;5049325;28;20269;-72
2022/02/23 00:56:03;;;;;;;0.70;0.40;;;7.00;99.90;;;;;;5052683;28;20632;-72
2022/02/23 00:58:28;;;;;;;0.70;0.50;;;6.90;99.90;;;;;;5034309;28;20175;-72
2022/02/23 01:00:54;;;;;;;0.70;0.50;;;6.90;99.90;;;;;;5033631;28;20833;-73
2022/02/23 01:03:19;;;;;;;0.70;0.50;;;6.90;99.90;;;;;;5030631;28;20673;-71
2022/02/23 01:05:45;;;;;;;0.70;0.40;;;6.80;99.90;;;;;;5031407;28;20167;-71
2022/02/23 01:08:11;;;;;;;0.70;0.40;;;6.80;99.90;;;;;;5033524;28;20536;-72
2022/02/23 01:10:36;;;;;;;0.80;0.80;;;6.70;99.90;;;;;;5036522;28;20189;-72
2022/02/23 01:13:03;;;;;;;0.70;0.50;;;6.60;99.90;;;;;;5035422;28;20279;-71
2022/02/23 01:15:28;;;;;;;0.70;0.40;;;6.60;99.90;;;;;;5034998;28;20184;-71
2022/02/23 01:17:54;;;;;;;5.43;1.90;;;6.50;99.90;;;;;;5045406;28;20828;-71
2022/02/23 01:20:19;;;;;;;0.70;0.50;;;6.50;99.90;;;;;;5041275;28;20695;-71
2022/02/23 01:22:45;;;;;;;1.63;0.80;;;6.50;99.90;;;;;;5035207;28;20243;-71
2022/02/23 01:25:11;;;;;;;0.70;0.50;;;6.50;99.90;;;;;;5049566;28;20159;-71
2022/02/23 01:27:36;;;;;;;0.70;0.50;;;6.40;99.90;;;;;;5055194;28;20627;-71
2022/02/23 01:30:05;;;;;;;0.70;0.50;;;6.40;99.90;;;;;;5055083;28;20170;-71
2022/02/23 01:32:31;;;;;;;0.70;0.50;;;6.40;99.90;;;;;;5041294;28;20199;-71
2022/02/23 01:34:57;;;;;;;0.70;0.50;;;6.30;99.90;;;;;;5034930;28;20413;-71
2022/02/23 01:37:22;;;;;;;0.70;0.50;;;6.30;99.90;;;;;;5035154;28;20410;-71
2022/02/23 01:39:49;;;;;;;0.70;0.67;;;6.30;99.90;;;;;;5034707;28;20421;-71
2022/02/23 01:42:15;;;;;;;0.70;0.50;;;6.30;99.90;;;;;;5034862;28;20664;-71
2022/02/23 01:44:41;;;;;;;0.70;0.40;;;6.20;99.90;;;;;;5034798;28;20433;-74
2022/02/23 01:47:07;;;;;;;0.70;0.40;;;6.20;99.90;;;;;;5035842;28;20418;-73
2022/02/23 01:49:32;;;;;;;0.70;0.50;;;6.20;99.90;;;;;;5043576;28;20536;-72
2022/02/23 01:51:58;;;;;;;0.70;0.50;;;6.20;99.90;;;;;;5051711;28;20434;-71
2022/02/23 01:54:23;;;;;;;0.70;0.50;;;6.10;99.90;;;;;;5034525;28;20214;-71
2022/02/23 01:56:49;;;;;;;0.70;0.50;;;6.10;99.90;;;;;;5036296;28;20186;-72
2022/02/23 01:59:15;;;;;;;0.70;0.50;;;6.10;99.90;;;;;;5036112;28;20187;-72
2022/02/23 02:01:40;;;;;;;0.70;0.50;;;6.10;99.90;;;;;;5037597;28;20225;-72
2022/02/23 02:04:06;;;;;;;0.70;0.50;;;6.10;99.90;;;;;;5057011;28;20174;-72
2022/02/23 02:06:31;;;;;;;0.70;0.47;;;6.10;99.90;;;;;;5049193;28;20700;-73
2022/02/23 02:08:57;;;;;;;0.70;0.40;;;6.00;99.90;;;;;;5036231;28;20180;-71
2022/02/23 02:11:22;;;;;;;0.70;0.50;;;6.00;99.90;;;;;;5034314;28;20558;-72
2022/02/23 02:13:48;;;;;;;0.70;0.40;;;6.00;99.90;;;;;;5033862;28;20191;-71
2022/02/23 02:16:13;;;;;;;1.63;1.53;;;6.00;99.90;;;;;;5033117;28;20190;-71
2022/02/23 02:18:39;;;;;;;0.70;0.47;;;6.00;99.90;;;;;;5035385;28;20525;-71
2022/02/23 02:21:04;;;;;;;0.70;0.50;;;5.90;99.90;;;;;;5042145;28;20690;-72
2022/02/23 02:23:30;;;;;;;0.90;0.70;;;5.90;99.90;;;;;;5053950;28;20707;-70
2022/02/23 02:25:55;;;;;;;0.70;0.43;;;5.90;99.90;;;;;;5048363;28;20657;-71
2022/02/23 02:28:21;;;;;;;0.70;0.47;;;5.90;99.90;;;;;;5034113;28;20579;-71
2022/02/23 02:30:47;;;;;;;0.70;0.50;;;5.90;99.90;;;;;;5034054;28;20195;-72
2022/02/23 02:33:12;;;;;;;1.10;1.00;;;5.90;99.90;;;;;;5034026;28;20176;-71
2022/02/23 02:35:38;;;;;;;0.70;0.50;;;5.80;99.90;;;;;;5035425;28;20229;-71
2022/02/23 02:38:05;;;;;;;0.70;0.40;;;5.80;99.90;;;;;;5033926;28;20180;-71
2022/02/23 02:40:31;;;;;;;0.70;0.50;;;5.80;99.90;;;;;;5033550;28;20463;-71
2022/02/23 02:42:57;;;;;;;0.70;0.50;;;5.80;99.90;;;;;;5032464;28;20504;-72
2022/02/23 02:45:24;;;;;;;0.70;0.40;;;5.70;99.90;;;;;;5032486;28;20433;-71
2022/02/23 02:47:50;;;;;;;0.70;0.50;;;5.80;99.90;;;;;;5033775;28;20172;-71
2022/02/23 02:50:16;;;;;;;0.80;0.60;;;5.70;99.90;;;;;;5051673;28;21038;-72
2022/02/23 02:52:41;;;;;;;0.70;0.50;;;5.70;99.90;;;;;;5051367;28;20186;-72
2022/02/23 02:55:07;;;;;;;0.70;0.50;;;5.70;99.90;;;;;;5033154;28;20218;-71
2022/02/23 02:57:33;;;;;;;0.70;0.50;;;5.70;99.90;;;;;;5036026;28;20175;-71
2022/02/23 02:59:58;;;;;;;0.80;0.60;;;5.70;99.90;;;;;;5033506;28;20411;-71
2022/02/23 03:02:24;;;;;;;0.70;0.50;;;5.70;99.90;;;;;;5035313;28;20207;-72
2022/02/23 03:04:49;;;;;;;0.70;0.50;;;5.70;99.90;;;;;;5051843;28;20171;-73
2022/02/23 03:07:16;;;;;;;0.70;0.50;;;5.70;99.90;;;;;;5043700;28;20176;-71
2022/02/23 03:09:41;;;;;;;0.80;0.53;;;5.60;99.90;;;;;;5033100;28;20191;-71
2022/02/23 03:12:07;;;;;;;0.70;0.50;;;5.60;99.90;;;;;;5033223;28;20434;-71
2022/02/23 03:14:33;;;;;;;0.70;0.50;;;5.60;99.90;;;;;;5041097;28;20178;-71
2022/02/23 03:16:58;;;;;;;0.70;0.53;;;5.60;99.90;;;;;;5045463;28;20929;-71
2022/02/23 03:19:24;;;;;;;0.70;0.50;;;5.60;99.90;;;;;;5033233;28;20559;-71
2022/02/23 03:21:49;;;;;;;0.70;0.50;;;5.60;99.90;;;;;;5032773;28;20203;-71
2022/02/23 03:24:15;;;;;;;0.70;0.50;;;5.50;99.90;;;;;;5032693;28;20179;-72
2022/02/23 03:26:40;;;;;;;0.70;0.50;;;5.60;99.90;;;;;;5033065;28;20172;-72
2022/02/23 03:29:06;;;;;;;0.70;0.47;;;5.50;99.90;;;;;;5032991;28;20226;-71
2022/02/23 03:31:32;;;;;;;0.70;0.57;;;5.50;99.90;;;;;;5041182;28;20782;-71
2022/02/23 03:33:58;;;;;;;0.70;0.40;;;5.50;99.90;;;;;;5048317;28;20175;-71
2022/02/23 03:36:23;;;;;;;0.70;0.43;;;5.50;99.90;;;;;;5032709;28;20418;-71
2022/02/23 03:38:49;;;;;;;0.70;0.40;;;5.50;99.90;;;;;;5032693;28;20175;-71
2022/02/23 03:41:15;;;;;;;0.70;0.50;;;5.50;99.90;;;;;;5032697;28;20245;-73
2022/02/23 03:43:41;;;;;;;0.70;0.57;;;5.50;99.90;;;;;;5032411;28;20201;-71
2022/02/23 03:46:07;;;;;;;0.70;0.47;;;5.40;99.90;;;;;;5032761;28;20207;-72
2022/02/23 03:48:33;;;;;;;0.70;0.50;;;5.40;99.90;;;;;;5032620;28;20418;-71
2022/02/23 03:50:59;;;;;;;0.70;0.50;;;5.40;99.90;;;;;;5032462;28;20981;-72
2022/02/23 03:53:24;;;;;;;0.70;0.40;;;5.40;99.90;;;;;;5032234;28;20582;-71
2022/02/23 03:55:50;;;;;;;0.70;0.50;;;5.40;99.90;;;;;;5032479;28;20180;-71
2022/02/23 03:58:15;;;;;;;0.70;0.47;;;5.40;99.90;;;;;;5032379;28;20545;-71
2022/02/23 04:00:42;;;;;;;0.70;0.50;;;5.30;99.90;;;;;;5037153;28;20659;-71
2022/02/23 04:03:08;;;;;;;0.70;0.50;;;5.30;99.90;;;;;;5043300;28;20597;-71
2022/02/23 04:05:34;;;;;;;0.70;0.50;;;5.30;99.90;;;;;;5038312;28;20430;-71
2022/02/23 04:07:59;;;;;;;0.70;0.50;;;5.30;99.90;;;;;;5052189;28;20798;-71
2022/02/23 04:10:25;;;;;;;0.70;0.50;;;5.30;99.90;;;;;;5052185;28;20171;-71
2022/02/23 04:12:50;;;;;;;2.57;2.47;;;5.30;99.90;;;;;;5045771;28;20282;-71
2022/02/23 04:15:17;;;;;;;0.70;0.40;;;5.30;99.90;;;;;;5034071;28;20604;-71
2022/02/23 04:17:43;;;;;;;0.70;0.40;;;5.20;99.90;;;;;;5052098;28;20537;-71
2022/02/23 04:20:09;;;;;;;5.03;3.13;;;5.20;99.90;;;;;;5050383;28;20429;-71
2022/02/23 04:22:36;;;;;;;0.70;0.50;;;5.20;99.90;;;;;;5048012;28;20535;-71
2022/02/23 04:25:03;;;;;;;0.70;0.57;;;5.20;99.90;;;;;;5031674;28;20406;-72
2022/02/23 04:27:28;;;;;;;0.70;0.40;;;5.20;99.90;;;;;;5052039;28;20463;-71
2022/02/23 04:29:54;;;;;;;0.70;0.40;;;5.20;99.90;;;;;;5051969;28;20902;-72
2022/02/23 04:32:19;;;;;;;1.07;0.90;;;5.20;99.90;;;;;;5044603;28;20199;-71
2022/02/23 04:34:45;;;;;;;0.80;0.60;;;5.10;99.90;;;;;;5031772;28;20175;-71
2022/02/23 04:37:10;;;;;;;0.70;0.43;;;5.10;99.90;;;;;;5032044;28;20189;-71
2022/02/23 04:39:36;;;;;;;0.70;0.50;;;5.10;99.90;;;;;;5031860;28;20194;-72
2022/02/23 04:42:02;;;;;;;0.70;0.50;;;5.10;99.90;;;;;;5031793;28;20742;-70
2022/02/23 04:44:28;;;;;;;0.70;0.50;;;5.00;99.90;;;;;;5033260;28;20236;-71
2022/02/23 04:46:54;;;;;;;0.70;0.50;;;5.00;99.90;;;;;;5035389;28;20518;-71
2022/02/23 04:49:20;;;;;;;0.80;0.57;;;5.00;99.90;;;;;;5036008;28;20174;-71
2022/02/23 04:51:45;;;;;;;0.70;0.60;;;5.00;99.90;;;;;;5035868;28;20426;-71
2022/02/23 04:54:11;;;;;;;0.70;0.50;;;4.90;99.90;;;;;;5042628;28;20241;-72
2022/02/23 04:56:36;;;;;;;0.70;0.50;;;4.90;99.90;;;;;;5040512;28;20176;-72
2022/02/23 04:59:02;;;;;;;0.70;0.50;;;4.90;99.90;;;;;;5035880;28;20164;-71
2022/02/23 05:01:28;;;;;;;0.70;0.50;;;4.90;99.90;;;;;;5049217;28;20186;-71
2022/02/23 05:03:53;;;;;;;0.70;0.40;;;4.90;99.90;;;;;;5040703;28;20203;-71
2022/02/23 05:06:19;;;;;;;0.80;0.60;;;4.90;99.90;;;;;;5046394;28;20675;-71
2022/02/23 05:08:44;;;;;;;3.33;0.70;;;4.90;99.90;;;;;;5055557;28;20246;-71
2022/02/23 05:11:10;;;;;;;0.70;0.50;;;4.90;99.90;;;;;;5050883;28;20196;-71
2022/02/23 05:13:35;;;;;;;0.70;0.50;;;4.90;99.90;;;;;;5035415;28;20258;-72
2022/02/23 05:16:03;;;;;;;0.80;0.70;;;4.90;99.90;;;;;;5043327;28;20179;-72
2022/02/23 05:18:30;;;;;;;0.70;0.40;;;4.80;99.90;;;;;;5055333;28;20167;-72
2022/02/23 05:21:00;;;;;;;0.70;0.40;;;4.80;99.90;;;;;;5052813;28;20483;-71
2022/02/23 05:23:26;;;;;;;0.70;0.50;;;4.70;99.90;;;;;;5034976;28;20450;-72
2022/02/23 05:25:53;;;;;;;0.70;0.50;;;4.70;99.90;;;;;;5040388;28;20534;-71
2022/02/23 05:28:19;;;;;;;0.70;0.50;;;4.60;99.90;;;;;;5054878;28;20413;-71
2022/02/23 05:30:45;;;;;;;0.70;0.40;;;4.60;99.90;;;;;;5054419;28;20405;-72
2022/02/23 05:33:11;;;;;;;0.70;0.40;;;4.50;99.90;;;;;;5036228;28;20817;-71
2022/02/23 05:35:36;;;;;;;0.80;0.60;;;4.50;99.90;;;;;;5037929;28;20233;-71
2022/02/23 05:38:03;;;;;;;0.70;0.50;;;4.50;99.90;;;;;;5055142;28;20441;-71
2022/02/23 05:40:28;;;;;;;0.70;0.50;;;4.50;99.90;;;;;;5055186;28;20178;-71
2022/02/23 05:42:54;;;;;;;0.70;0.40;;;4.50;99.90;;;;;;5036715;28;20461;-72
2022/02/23 05:45:21;;;;;;;0.70;0.50;;;4.50;99.90;;;;;;5036437;28;20187;-71
2022/02/23 05:47:46;;;;;;;0.70;0.50;;;4.50;99.90;;;;;;5055290;28;20937;-71
2022/02/23 05:50:12;;;;;;;0.70;0.43;;;4.50;99.90;;;;;;5054312;28;20508;-71
2022/02/23 05:52:38;;;;;;;0.70;0.50;;;4.50;99.90;;;;;;5038974;28;20665;-71
2022/02/23 05:55:05;;;;;;;0.80;0.70;;;4.60;99.90;;;;;;5034039;28;20797;-71
2022/02/23 05:57:31;;;;;;;0.70;0.40;;;4.60;99.90;;;;;;5052703;28;20426;-71
2022/02/23 05:59:56;;;;;;;0.70;0.47;;;4.60;99.90;;;;;;5053566;28;20485;-72
2022/02/23 06:02:22;;;;;;;0.70;0.40;;;4.60;99.90;;;;;;5039436;28;21154;-71
2022/02/23 06:04:47;;;;;;;0.70;0.50;;;4.60;99.90;;;;;;5034459;28;20745;-71
2022/02/23 06:07:13;;;;;;;0.70;0.50;;;4.60;99.90;;;;;;5050843;28;20181;-71
2022/02/23 06:09:38;;;;;;;0.70;0.40;;;4.60;99.90;;;;;;5054592;28;20159;-71
2022/02/23 06:12:04;;;;;;;0.70;0.50;;;4.60;99.90;;;;;;5043558;28;20206;-70
2022/02/23 06:14:31;;;;;;;0.70;0.40;;;4.60;99.90;;;;;;5032961;28;20656;-71
2022/02/23 06:16:57;;;;;;;0.70;0.50;;;4.50;99.90;;;;;;5048331;28;20171;-71
2022/02/23 06:19:22;;;;;;;0.70;0.50;;;4.50;99.90;;;;;;5054257;28;20780;-71
2022/02/23 06:21:48;;;;;;;0.70;0.40;;;4.50;99.90;;;;;;5045784;28;20203;-71
2022/02/23 06:24:14;;;;;;;0.70;0.40;;;4.50;99.90;;;;;;5034003;28;20160;-71
2022/02/23 06:26:39;;;;;;;0.70;0.50;;;4.50;99.90;;;;;;5045566;28;20587;-71
2022/02/23 06:29:05;;;;;;;0.70;0.40;;;4.50;99.90;;;;;;5038589;28;20175;-71
2022/02/23 06:31:30;;;;;;;0.70;0.50;;;4.50;99.90;;;;;;5032606;28;20830;-71
2022/02/23 06:33:56;;;;;;;0.80;0.73;;;4.50;99.90;;;;;;5032631;28;20540;-71
2022/02/23 06:36:21;;;;;;;0.70;0.50;;;4.50;99.90;;;;;;5034228;28;20175;-71
2022/02/23 06:38:47;;;;;;;0.70;0.50;;;4.50;99.90;;;;;;5033959;28;20183;-71
2022/02/23 06:41:15;;;;;;;0.70;0.50;;;4.50;99.90;;;;;;5032589;28;20194;-71
2022/02/23 06:43:43;;;;;;;0.70;0.50;;;4.50;99.90;;;;;;5033782;28;20254;-73
2022/02/23 06:46:10;;;;;;;0.70;0.50;;;4.60;99.90;;;;;;5033799;28;21126;-71
2022/02/23 06:48:36;;;;;;;0.73;0.50;;;4.60;99.90;;;;;;5033783;28;20911;-71
2022/02/23 06:51:02;;;;;;;0.70;0.50;;;4.70;99.90;;;;;;5033521;28;20469;-71
2022/02/23 06:53:28;;;;;;;0.70;0.40;;;4.80;99.90;;;;;;5033535;28;20426;-71
2022/02/23 06:55:54;;;;;;;0.70;0.40;;;4.80;99.90;;;;;;5033590;28;20444;-71
2022/02/23 06:58:20;;;;;;;0.70;0.40;;;4.90;99.90;;;;;;5032403;28;20233;-71
2022/02/23 07:00:45;;;;;;;0.70;0.40;;;4.90;99.90;;;;;;5033596;28;20193;-71
2022/02/23 07:03:11;;;;;;;1.87;1.77;;;5.00;99.90;;;;;;5033400;28;20458;-72
2022/02/23 07:05:37;;;;;;;0.70;0.50;;;5.00;99.90;;;;;;5038422;28;20167;-71
2022/02/23 07:08:05;;;;;;;1.73;1.63;;;5.10;99.90;;;;;;5051081;28;20521;-71
2022/02/23 07:10:32;;;;;;;0.70;0.40;;;5.10;99.90;;;;;;5053211;28;20930;-71
2022/02/23 07:13:00;;;;;;;0.70;0.40;;;5.20;99.90;;;;;;5037503;28;20429;-72
2022/02/23 07:15:26;;;;;;;0.70;0.40;;;5.20;99.90;;;;;;5036541;28;20474;-71
2022/02/23 07:17:52;;;;;;;0.70;0.50;;;5.20;99.90;;;;;;5051923;28;20445;-71
2022/02/23 07:20:18;;;;;;;0.70;0.40;;;5.30;99.90;;;;;;5045481;28;20429;-71
2022/02/23 07:22:44;;;;;;;0.70;0.50;;;5.30;99.90;;;;;;5033005;28;20458;-70
2022/02/23 07:25:12;;;;;;;0.70;0.40;;;5.40;99.90;;;;;;5047087;28;20417;-71
2022/02/23 07:27:38;;;;;;;0.70;0.50;;;5.40;99.90;;;;;;5033057;28;20441;-71
2022/02/23 07:30:06;;;;;;;0.80;0.60;;;5.50;99.90;;;;;;5031530;28;20422;-71
2022/02/23 07:32:32;;;;;;;0.70;0.50;;;5.50;99.90;;;;;;5031381;28;20473;-71
2022/02/23 07:34:59;;;;;;;0.70;0.50;;;5.60;99.90;;;;;;5032587;28;20416;-71
2022/02/23 07:37:25;;;;;;;0.70;0.60;;;5.70;99.90;;;;;;5033003;28;20488;-73
2022/02/23 07:39:59;;;;;;;0.70;0.50;;;5.70;99.90;;;;;;5031227;28;20426;-72
2022/02/23 07:42:25;;;;;;;0.70;0.50;;;5.80;99.90;;;;;;5032563;28;20472;-72
2022/02/23 07:44:51;;;;;;;0.70;0.50;;;5.90;99.90;;;;;;5032542;28;20402;-71
2022/02/23 07:47:17;;;;;;;6.43;1.57;;;6.00;99.90;;;;;;5032618;28;20183;-71
2022/02/23 07:49:49;;;;;;;0.70;0.50;;;6.10;99.90;;;;;;5032465;28;20539;-71
2022/02/23 07:52:16;;;;;;;0.70;0.40;;;6.20;99.90;;;;;;5031401;28;20468;-71
2022/02/23 07:54:42;;;;;;;0.70;0.50;;;6.30;99.90;;;;;;5032322;28;20924;-72
2022/02/23 07:57:07;;;;;;;0.70;0.50;;;6.50;99.90;;;;;;5052155;28;20425;-71
2022/02/23 07:59:33;;;;;;;0.80;0.50;;;6.60;99.90;;;;;;5052166;28;20308;-71
2022/02/23 08:01:59;;;;;;;0.70;0.50;;;6.80;99.90;;;;;;5030911;28;20207;-71
2022/02/23 08:04:25;;;;;;;0.70;0.40;;;7.00;99.90;;;;;;5032108;28;20160;-71
2022/02/23 08:06:50;;;;;;;0.70;0.60;;;7.20;99.90;;;;;;5015102;28;20423;-71
2022/02/23 08:09:16;;;;;;;0.80;0.53;;;7.50;99.90;;;;;;5012643;28;20181;-72
2022/02/23 08:11:42;;;;;;;1.10;0.70;;;8.00;99.90;;;;;;5029326;28;20209;-71
2022/02/23 08:14:09;;;;;;;0.70;0.60;;;8.70;99.90;;;;;;5032007;28;20167;-70
2022/02/23 08:22:16;;;;;;;0.70;0.50;;;11.00;99.90;;;;;;5025363;28;20502;-73
2022/02/23 08:24:44;;;;;;;0.70;0.50;;;12.00;99.90;;;;;;5031610;28;20422;-73
2022/02/23 08:27:12;;;;;;;0.80;0.60;;;12.70;99.90;;;;;;5032105;28;20174;-72
2022/02/23 08:29:40;;;;;;;1.97;1.10;;;13.30;99.90;;;;;;5031821;28;20760;-72
2022/02/23 08:32:08;;;;;;;3.30;0.90;;;14.00;99.90;;;;;;5031886;28;20496;-71
2022/02/23 08:34:34;;;;;;;1.80;1.60;;;14.60;99.90;;;;;;5031806;28;20987;-72
2022/02/23 08:36:59;;;;;;;0.80;0.70;;;15.30;99.90;;;;;;5032016;28;20899;-72
2022/02/23 08:39:25;;;;;;;2.70;0.60;;;15.90;99.90;;;;;;5031865;28;20453;-73
2022/02/23 08:41:51;;;;;;;0.70;0.60;;;16.40;99.90;;;;;;5046807;28;20194;-73
2022/02/23 08:44:17;;;;;;;0.80;0.77;;;17.00;99.90;;;;;;5052130;28;20163;-73
2022/02/23 08:46:43;;;;;;;1.83;0.70;;;17.50;99.90;;;;;;5047721;28;20182;-72
2022/02/23 08:49:10;;;;;;;0.70;0.57;;;17.80;99.90;;;;;;5041801;28;20751;-72
2022/02/23 08:51:38;;;;;;;2.23;0.70;;;18.10;99.90;;;;;;5031541;28;20523;-72
2022/02/23 08:54:05;;;;;;;0.70;0.50;;;18.60;98.00;;;;;;5031608;28;20449;-72
2022/02/23 08:56:32;;;;;;;2.33;0.60;;;19.10;95.10;;;;;;5031546;28;20398;-72
2022/02/23 08:58:58;;;;;;;1.10;1.00;;;19.40;87.40;;;;;;5033039;28;20429;-73
2022/02/23 09:01:25;;;;;;;1.30;0.90;;;19.70;78.80;;;;;;5035432;28;20917;-72
2022/02/23 09:03:51;;;;;;;3.83;2.43;;;20.00;73.40;;;;;;5031583;28;20461;-72
2022/02/23 09:06:18;;;;;;;0.90;0.67;;;20.30;69.70;;;;;;5031417;28;20522;-72
2022/02/23 09:08:44;;;;;;;0.70;0.50;;;20.60;69.10;;;;;;5031655;28;20476;-73
2022/02/23 09:11:11;;;;;;;0.80;0.70;;;21.00;67.50;;;;;;5038969;28;20441;-73
2022/02/23 09:13:37;;;;;;;3.37;1.10;;;21.40;64.20;;;;;;5051080;28;20710;-72
2022/02/23 09:16:04;;;;;;;0.80;0.70;;;22.00;63.70;;;;;;5050820;28;20405;-72
2022/02/23 09:18:29;;;;;;;1.43;0.93;;;22.50;62.10;;;;;;5032480;28;20254;-72
2022/02/23 09:20:55;;;;;;;3.10;0.87;;;23.00;60.00;;;;;;5031439;28;20481;-73
2022/02/23 09:23:21;;;;;;;2.70;0.90;;;23.50;59.00;;;;;;5031535;28;20242;-72
2022/02/23 09:25:46;;;;;;;1.57;0.80;;;23.60;56.60;;;;;;5031702;28;20179;-70
2022/02/23 09:28:12;;;;;;;1.50;0.80;;;23.70;55.80;;;;;;5030403;28;20406;-70
2022/02/23 09:30:37;;;;;;;0.80;0.60;;;23.90;55.00;;;;;;5033696;28;20172;-70
2022/02/23 09:33:03;;;;;;;0.80;0.73;;;24.10;54.10;;;;;;5034186;28;20190;-69
2022/02/23 09:35:29;;;;;;;0.80;0.60;;;24.30;53.30;;;;;;5034943;28;20175;-70
2022/02/23 09:37:57;;;;;;;0.80;0.70;;;24.60;53.00;;;;;;5035389;28;20259;-70
2022/02/23 09:40:24;;;;;;;0.90;0.70;;;25.00;53.00;;;;;;5034984;28;20667;-70
2022/02/23 09:42:50;;;;;;;0.70;0.50;;;25.30;51.80;;;;;;5034960;28;20454;-70
2022/02/23 09:45:16;;;;;;;0.90;0.70;;;25.50;51.00;;;;;;5034364;28;21003;-70
2022/02/23 09:47:43;;;;;;;2.40;1.37;;;25.70;51.00;;;;;;5034966;28;20797;-70
2022/02/23 09:50:12;;;;;;;0.80;0.60;;;25.80;50.30;;;;;;5034960;28;20434;-70
2022/02/23 09:52:37;;;;;;;0.80;0.70;;;25.90;49.80;;;;;;5034816;28;20826;-70
2022/02/23 09:55:05;;;;;;;1.03;0.87;;;26.10;48.70;;;;;;5032952;28;20580;-70
2022/02/23 09:57:31;;;;;;;1.10;0.80;;;26.30;48.90;;;;;;5034823;28;20240;-71
2022/02/23 09:59:57;;;;;;;1.07;0.77;;;26.90;49.60;;;;;;5033781;28;20923;-70
2022/02/23 10:02:23;;;;;;;2.80;1.40;;;27.50;48.30;;;;;;5035069;28;20707;-70
2022/02/23 10:04:51;;;;;;;1.30;0.87;;;28.10;48.00;;;;;;5034113;28;20811;-70
2022/02/23 10:07:38;;;;;;;0.90;0.80;;;28.60;46.60;;;;;;5035870;28;20433;-70
2022/02/23 10:10:07;;;;;;;0.80;0.60;;;28.80;44.30;;;;;;5034910;28;20504;-71
2022/02/23 10:12:34;;;;;;;1.50;1.00;;;29.10;44.00;;;;;;5034491;28;20422;-71
2022/02/23 10:15:12;;;;;;;1.37;1.27;;;29.40;43.80;;;;;;5036015;28;20480;-70
2022/02/23 10:17:44;;;;;;;1.97;1.00;;;29.60;42.90;;;;;;5034882;28;20953;-70
2022/02/23 10:20:28;;;;;;;1.20;0.70;;;29.70;42.40;;;;;;5034354;28;21019;-70
2022/02/23 10:23:20;;;;;;;2.57;1.03;;;29.90;41.50;;;;;;5034294;28;20611;-70
2022/02/23 10:25:57;;;;;;;0.90;0.77;;;30.40;40.80;;;;;;5033691;28;20517;-70
2022/02/23 10:28:26;;;;;;;0.80;0.60;;;30.50;39.50;;;;;;5035456;28;20475;-70
2022/02/23 10:30:57;;;;;;;3.00;1.90;;;30.60;39.20;;;;;;5034159;28;20431;-70
2022/02/23 10:33:26;;;;;;;2.00;1.10;;;30.70;39.00;;;;;;5037578;28;20479;-70
2022/02/23 10:35:55;;;;;;;0.80;0.60;;;31.00;39.50;;;;;;5043335;28;20422;-71
2022/02/23 10:38:27;;;;;;;0.80;0.60;;;31.60;39.30;;;;;;5046749;28;20444;-70
2022/02/23 10:40:59;;;;;;;2.20;1.30;;;31.90;37.90;;;;;;5053518;28;20425;-70
2022/02/23 10:43:31;;;;;;;0.80;0.50;;;32.30;37.90;;;;;;5053132;28;20456;-70
2022/02/23 10:46:06;;;;;;;1.00;0.83;;;32.80;37.80;;;;;;5043217;28;20426;-70
2022/02/23 10:48:40;;;;;;;1.20;0.80;;;33.40;37.00;;;;;;5034692;28;20432;-70
2022/02/23 10:51:10;;;;;;;0.83;0.67;;;33.80;36.10;;;;;;5033488;28;21040;-70
2022/02/23 10:53:37;;;;;;;1.00;0.90;;;34.10;35.90;;;;;;5033664;28;20520;-70
2022/02/23 10:56:21;;;;;;;0.80;0.60;;;34.40;35.60;;;;;;5044992;28;20422;-72
2022/02/23 10:58:46;;;;;;;1.20;0.80;;;34.90;35.40;;;;;;5036161;28;20426;-72
2022/02/23 11:01:12;;;;;;;0.80;0.60;;;35.10;33.40;;;;;;5033236;28;20533;-71
2022/02/23 11:03:39;;;;;;;1.07;0.60;;;35.10;32.90;;;;;;5033584;28;20219;-71
2022/02/23 11:06:05;;;;;;;1.83;0.70;;;35.30;33.00;;;;;;5033476;28;20513;-72
2022/02/23 11:08:31;;;;;;;1.50;0.93;;;35.40;32.50;;;;;;5037290;28;20168;-72
2022/02/23 11:10:59;;;;;;;0.90;0.70;;;35.40;33.00;;;;;;5044225;28;20187;-71
2022/02/23 11:13:24;;;;;;;0.80;0.70;;;35.30;33.30;;;;;;5053418;28;20480;-71
2022/02/23 11:15:52;;;;;;;1.00;0.60;;;35.20;33.00;;;;;;5039183;28;20529;-72
2022/02/23 11:18:20;;;;;;;0.80;0.60;;;35.00;32.80;;;;;;5034610;28;20179;-72
2022/02/23 11:20:48;;;;;;;0.97;0.60;;;35.10;32.60;;;;;;5032735;28;20410;-72
2022/02/23 11:23:24;;;;;;;1.13;0.80;;;35.10;32.60;;;;;;5034236;28;20942;-72
2022/02/23 11:25:54;;;;;;;1.07;0.70;;;35.30;32.60;;;;;;5033979;28;20418;-72
2022/02/23 11:28:21;;;;;;;1.67;1.03;;;35.20;32.30;;;;;;5043886;28;20521;-72
2022/02/23 11:30:48;;;;;;;0.80;0.60;;;35.20;32.60;;;;;;5052895;28;20409;-72
2022/02/23 11:33:13;;;;;;;1.10;0.70;;;35.00;32.30;;;;;;5052891;28;20500;-72
2022/02/23 11:35:41;;;;;;;0.90;0.73;;;34.60;32.40;;;;;;5037461;28;20534;-72
2022/02/23 11:38:08;;;;;;;1.40;0.90;;;34.50;32.10;;;;;;5050671;28;20678;-73
2022/02/23 11:40:51;;;;;;;0.80;0.60;;;34.00;31.90;;;;;;5052582;28;20437;-72
2022/02/23 11:43:26;;;;;;;1.20;1.10;;;33.90;32.30;;;;;;5052639;28;20445;-72
2022/02/23 11:45:56;;;;;;;0.80;0.50;;;34.50;32.70;;;;;;5035870;28;20421;-72
2022/02/23 11:48:22;;;;;;;2.07;1.40;;;34.40;31.80;;;;;;5032844;28;20506;-72
2022/02/23 11:51:02;;;;;;;0.80;0.60;;;34.10;31.30;;;;;;5032814;28;20955;-72
2022/02/23 11:53:41;;;;;;;1.43;0.90;;;34.50;32.10;;;;;;5035892;28;20211;-72
2022/02/23 11:56:14;;;;;;;1.30;0.70;;;35.30;31.40;;;;;;5032120;28;20480;-73
2022/02/23 11:58:48;;;;;;;0.80;0.70;;;36.40;31.70;;;;;;5032531;28;20398;-72
2022/02/23 12:01:16;;;;;;;0.90;0.60;;;37.60;31.30;;;;;;5045783;28;20498;-72
2022/02/23 12:03:44;;;;;;;5.37;0.90;;;38.20;30.20;;;;;;5050188;28;20441;-73
2022/02/23 12:06:10;;;;;;;0.80;0.70;;;37.70;29.30;;;;;;5043253;28;20424;-73
2022/02/23 12:08:37;;;;;;;2.73;0.67;;;37.50;29.40;;;;;;5051232;28;20955;-72
2022/02/23 12:11:05;;;;;;;0.90;0.70;;;35.90;28.60;;;;;;5051571;28;20437;-72
2022/02/23 12:13:51;;;;;;;1.00;0.80;;;34.50;29.40;;;;;;5050318;28;20401;-72
2022/02/23 12:16:27;;;;;;;2.20;0.83;;;33.70;30.00;;;;;;5031967;28;20814;-72
2022/02/23 12:18:58;;;;;;;0.80;0.60;;;33.40;30.40;;;;;;5033458;28;20422;-72
2022/02/23 12:21:47;;;;;;;0.80;0.60;;;33.20;31.30;;;;;;5032326;28;20422;-72
2022/02/23 12:24:18;;;;;;;1.00;0.80;;;33.90;32.20;;;;;;5036981;28;20809;-72
2022/02/23 12:26:45;;;;;;;1.10;0.70;;;35.30;32.00;;;;;;5032521;28;20425;-73
2022/02/23 12:29:13;;;;;;;1.60;1.50;;;36.50;30.90;;;;;;5033167;28;20414;-73
2022/02/23 12:31:40;;;;;;;0.97;0.80;;;37.70;30.20;;;;;;5032015;28;20425;-73
2022/02/23 12:34:07;;;;;;;0.80;0.70;;;38.60;29.80;;;;;;5036350;28;20421;-73
2022/02/23 12:36:39;;;;;;;1.10;0.70;;;39.20;29.00;;;;;;5034161;28;20441;-73
2022/02/23 12:39:12;;;;;;;0.90;0.70;;;39.70;29.00;;;;;;5032206;28;20776;-72
2022/02/23 12:41:39;;;;;;;1.53;0.90;;;40.60;29.00;;;;;;5031908;28;20938;-73
2022/02/23 12:44:08;;;;;;;0.90;0.70;;;41.30;28.20;;;;;;5031844;28;20457;-73
2022/02/23 12:46:47;;;;;;;1.17;1.03;;;41.70;27.60;;;;;;5030862;28;20426;-73
2022/02/23 12:49:14;;;;;;;1.00;0.80;;;42.00;27.30;;;;;;5037523;28;20421;-72
2022/02/23 12:51:43;;;;;;;0.90;0.80;;;42.30;27.10;;;;;;5043097;28;20425;-73
2022/02/23 12:54:12;;;;;;;1.23;1.00;;;42.60;26.80;;;;;;5046011;28;20471;-73
2022/02/23 12:56:39;;;;;;;1.10;0.97;;;42.80;26.70;;;;;;5068436;28;20424;-72